sensor_id;sensor_type;location;lat;lon;timestamp;pressure;altitude;pressure_sealevel;temperature;humidity
70314;BME280;71040;47.526;18.986;2024-02-26T00:01:19;98978.78;;;10.45;92.06
70314;BME280;71040;47.526;18.986;2024-02-26T00:06:19;98972.72;;;10.44;92.28
70314;BME280;71040;47.526;18.986;2024-02-26T00:11:22;98974.50;;;10.44;92.40
70314;BME280;71040;47.526;18.986;2024-02-26T00:16:27;98989.25;;;10.45;92.23
70314;BME280;71040;47.526;18.986;2024-02-26T00:21:28;98983.19;;;10.44;92.45
70314;BME280;71040;47.526;18.986;2024-02-26T00:26:28;98971.88;;;10.44;92.44
70314;BME280;71040;47.526;18.986;2024-02-26T00:31:29;98975.41;;;10.43;92.36
70314;BME280;71040;47.526;18.986;2024-02-26T00:36:36;98969.28;;;10.44;92.58
70314;BME280;71040;47.526;18.986;2024-02-26T00:41:40;98960.59;;;10.43;92.25
70314;BME280;71040;47.526;18.986;2024-02-26T00:46:47;98967.56;;;10.43;92.51
70314;BME280;71040;47.526;18.986;2024-02-26T00:51:47;98957.13;;;10.43;92.14
70314;BME280;71040;47.526;18.986;2024-02-26T00:56:48;98951.13;;;10.41;92.53
70314;BME280;71040;47.526;18.986;2024-02-26T01:01:52;98950.13;;;10.43;92.57
70314;BME280;71040;47.526;18.986;2024-02-26T01:06:53;98938.91;;;10.41;92.56
70314;BME280;71040;47.526;18.986;2024-02-26T01:11:53;98941.53;;;10.41;92.53
70314;BME280;71040;47.526;18.986;2024-02-26T01:16:53;98931.94;;;10.42;92.66
70314;BME280;71040;47.526;18.986;2024-02-26T01:21:56;98926.69;;;10.42;92.31
70314;BME280;71040;47.526;18.986;2024-02-26T01:26:57;98922.41;;;10.41;92.24
70314;BME280;71040;47.526;18.986;2024-02-26T01:31:57;98930.25;;;10.41;92.30
70314;BME280;71040;47.526;18.986;2024-02-26T01:37:00;98930.25;;;10.41;92.22
70314;BME280;71040;47.526;18.986;2024-02-26T01:42:01;98923.25;;;10.41;92.69
70314;BME280;71040;47.526;18.986;2024-02-26T01:47:01;98917.25;;;10.39;92.47
70314;BME280;71040;47.526;18.986;2024-02-26T01:52:08;98925.00;;;10.41;92.12
70314;BME280;71040;47.526;18.986;2024-02-26T01:57:11;98918.94;;;10.40;92.50
70314;BME280;71040;47.526;18.986;2024-02-26T02:02:14;98913.81;;;10.39;92.65
70314;BME280;71040;47.526;18.986;2024-02-26T02:07:18;98919.88;;;10.39;92.40
70314;BME280;71040;47.526;18.986;2024-02-26T02:12:21;98927.72;;;10.39;92.46
70314;BME280;71040;47.526;18.986;2024-02-26T02:17:21;98926.06;;;10.38;92.35
70314;BME280;71040;47.526;18.986;2024-02-26T02:22:22;98922.59;;;10.38;92.51
70314;BME280;71040;47.526;18.986;2024-02-26T02:27:23;98931.28;;;10.38;92.20
70314;BME280;71040;47.526;18.986;2024-02-26T02:32:24;98933.91;;;10.38;92.55
70314;BME280;71040;47.526;18.986;2024-02-26T02:37:27;98931.28;;;10.38;92.29
70314;BME280;71040;47.526;18.986;2024-02-26T02:42:27;98925.22;;;10.38;92.59
70314;BME280;71040;47.526;18.986;2024-02-26T02:47:30;98924.38;;;10.37;92.78
70314;BME280;71040;47.526;18.986;2024-02-26T02:52:33;98927.81;;;10.38;92.29
70314;BME280;71040;47.526;18.986;2024-02-26T02:57:35;98929.69;;;10.36;92.62
70314;BME280;71040;47.526;18.986;2024-02-26T03:02:43;98921.84;;;10.36;92.56
70314;BME280;71040;47.526;18.986;2024-02-26T03:07:45;98921.84;;;10.36;92.79
70314;BME280;71040;47.526;18.986;2024-02-26T03:12:45;98922.75;;;10.35;92.48
70314;BME280;71040;47.526;18.986;2024-02-26T03:17:46;98925.38;;;10.35;92.83
70314;BME280;71040;47.526;18.986;2024-02-26T03:22:48;98921.84;;;10.36;92.46
70314;BME280;71040;47.526;18.986;2024-02-26T03:27:51;98924.53;;;10.34;92.51
70314;BME280;71040;47.526;18.986;2024-02-26T03:32:56;98913.16;;;10.35;92.64
70314;BME280;71040;47.526;18.986;2024-02-26T03:37:59;98920.16;;;10.35;92.75
70314;BME280;71040;47.526;18.986;2024-02-26T03:42:59;98903.63;;;10.34;93.01
70314;BME280;71040;47.526;18.986;2024-02-26T03:47:59;98908.78;;;10.36;92.60
70314;BME280;71040;47.526;18.986;2024-02-26T03:53:00;98898.41;;;10.34;92.42
70314;BME280;71040;47.526;18.986;2024-02-26T03:58:03;98895.78;;;10.34;92.35
70314;BME280;71040;47.526;18.986;2024-02-26T04:03:05;98899.25;;;10.35;92.61
70314;BME280;71040;47.526;18.986;2024-02-26T04:08:08;98896.81;;;10.32;92.73
70314;BME280;71040;47.526;18.986;2024-02-26T04:13:08;98898.41;;;10.34;92.51
70314;BME280;71040;47.526;18.986;2024-02-26T04:18:09;98906.31;;;10.33;92.75
70314;BME280;71040;47.526;18.986;2024-02-26T04:23:14;98897.56;;;10.34;92.80
70314;BME280;71040;47.526;18.986;2024-02-26T04:28:14;98895.97;;;10.31;92.73
70314;BME280;71040;47.526;18.986;2024-02-26T04:33:17;98886.44;;;10.30;92.52
70314;BME280;71040;47.526;18.986;2024-02-26T04:38:20;98893.25;;;10.33;92.65
70314;BME280;71040;47.526;18.986;2024-02-26T04:43:25;98901.94;;;10.33;92.77
70314;BME280;71040;47.526;18.986;2024-02-26T04:48:27;98898.50;;;10.33;92.53
70314;BME280;71040;47.526;18.986;2024-02-26T04:53:27;98882.81;;;10.33;92.91
70314;BME280;71040;47.526;18.986;2024-02-26T04:58:28;98886.34;;;10.32;92.61
70314;BME280;71040;47.526;18.986;2024-02-26T05:03:28;98888.13;;;10.31;93.03
70314;BME280;71040;47.526;18.986;2024-02-26T05:08:31;98897.72;;;10.31;92.76
70314;BME280;71040;47.526;18.986;2024-02-26T05:13:33;98882.91;;;10.31;93.00
70314;BME280;71040;47.526;18.986;2024-02-26T05:18:40;98885.59;;;10.30;92.73
70314;BME280;71040;47.526;18.986;2024-02-26T05:23:41;98883.81;;;10.30;92.68
70314;BME280;71040;47.526;18.986;2024-02-26T05:28:45;98890.81;;;10.30;92.40
70314;BME280;71040;47.526;18.986;2024-02-26T05:33:48;98882.13;;;10.29;92.82
70314;BME280;71040;47.526;18.986;2024-02-26T05:38:53;98877.00;;;10.28;93.07
70314;BME280;71040;47.526;18.986;2024-02-26T05:43:58;98885.59;;;10.30;92.80
70314;BME280;71040;47.526;18.986;2024-02-26T05:48:59;98888.28;;;10.28;92.48
70314;BME280;71040;47.526;18.986;2024-02-26T05:53:59;98884.84;;;10.28;92.98
70314;BME280;71040;47.526;18.986;2024-02-26T05:59:02;98893.50;;;10.28;92.70
70314;BME280;71040;47.526;18.986;2024-02-26T06:04:04;98891.75;;;10.29;92.88
70314;BME280;71040;47.526;18.986;2024-02-26T06:09:05;98900.50;;;10.28;92.99
70314;BME280;71040;47.526;18.986;2024-02-26T06:14:05;98897.06;;;10.27;93.24
70314;BME280;71040;47.526;18.986;2024-02-26T06:19:05;98910.97;;;10.28;92.70
70314;BME280;71040;47.526;18.986;2024-02-26T06:24:08;98905.84;;;10.26;92.86
70314;BME280;71040;47.526;18.986;2024-02-26T06:29:09;98908.34;;;10.28;92.84
70314;BME280;71040;47.526;18.986;2024-02-26T06:34:11;98913.69;;;10.26;92.72
70314;BME280;71040;47.526;18.986;2024-02-26T06:39:12;98914.63;;;10.25;92.98
70314;BME280;71040;47.526;18.986;2024-02-26T06:44:15;98914.63;;;10.25;93.00
70314;BME280;71040;47.526;18.986;2024-02-26T06:49:18;98911.06;;;10.26;92.92
70314;BME280;71040;47.526;18.986;2024-02-26T06:54:18;98910.22;;;10.26;93.04
70314;BME280;71040;47.526;18.986;2024-02-26T06:59:19;98906.84;;;10.24;93.26
70314;BME280;71040;47.526;18.986;2024-02-26T07:04:22;98917.22;;;10.25;93.12
70314;BME280;71040;47.526;18.986;2024-02-26T07:09:25;98914.69;;;10.24;92.99
70314;BME280;71040;47.526;18.986;2024-02-26T07:14:25;98918.06;;;10.26;92.95
70314;BME280;71040;47.526;18.986;2024-02-26T07:19:28;98915.63;;;10.23;93.02
70314;BME280;71040;47.526;18.986;2024-02-26T07:24:31;98925.06;;;10.25;93.11
70314;BME280;71040;47.526;18.986;2024-02-26T07:29:31;98931.13;;;10.26;93.19
70314;BME280;71040;47.526;18.986;2024-02-26T07:34:32;98934.66;;;10.25;93.31
70314;BME280;71040;47.526;18.986;2024-02-26T07:39:32;98940.81;;;10.24;93.25
70314;BME280;71040;47.526;18.986;2024-02-26T07:44:37;98937.28;;;10.25;93.37
70314;BME280;71040;47.526;18.986;2024-02-26T07:49:42;98936.44;;;10.24;93.23
70314;BME280;71040;47.526;18.986;2024-02-26T07:54:45;98940.81;;;10.24;93.29
70314;BME280;71040;47.526;18.986;2024-02-26T07:59:45;98937.34;;;10.23;93.05
70314;BME280;71040;47.526;18.986;2024-02-26T08:04:54;98935.66;;;10.22;93.55
70314;BME280;71040;47.526;18.986;2024-02-26T08:09:58;98948.56;;;10.25;93.50
70314;BME280;71040;47.526;18.986;2024-02-26T08:15:00;98946.03;;;10.24;93.23
70314;BME280;71040;47.526;18.986;2024-02-26T08:20:01;98949.50;;;10.24;93.70
70314;BME280;71040;47.526;18.986;2024-02-26T08:25:02;98957.34;;;10.24;93.36
70314;BME280;71040;47.526;18.986;2024-02-26T08:30:07;98939.13;;;10.23;93.41
70314;BME280;71040;47.526;18.986;2024-02-26T08:35:10;98933.91;;;10.23;93.63
70314;BME280;71040;47.526;18.986;2024-02-26T08:40:14;98930.28;;;10.25;93.45
70314;BME280;71040;47.526;18.986;2024-02-26T08:45:14;98932.13;;;10.23;93.46
70314;BME280;71040;47.526;18.986;2024-02-26T08:50:15;98940.72;;;10.25;93.66
70314;BME280;71040;47.526;18.986;2024-02-26T08:55:17;98942.50;;;10.25;93.52
70314;BME280;71040;47.526;18.986;2024-02-26T09:00:21;98951.19;;;10.25;93.59
70314;BME280;71040;47.526;18.986;2024-02-26T09:05:24;98957.25;;;10.26;93.68
70314;BME280;71040;47.526;18.986;2024-02-26T09:10:26;98958.19;;;10.25;93.46
70314;BME280;71040;47.526;18.986;2024-02-26T09:15:27;98965.09;;;10.26;93.66
70314;BME280;71040;47.526;18.986;2024-02-26T09:20:34;98966.78;;;10.27;93.76
70314;BME280;71040;47.526;18.986;2024-02-26T09:25:39;98968.53;;;10.26;93.65
70314;BME280;71040;47.526;18.986;2024-02-26T09:30:39;98972.81;;;10.27;93.89
70314;BME280;71040;47.526;18.986;2024-02-26T09:35:40;98972.81;;;10.27;93.70
70314;BME280;71040;47.526;18.986;2024-02-26T09:40:41;98975.41;;;10.27;93.75
70314;BME280;71040;47.526;18.986;2024-02-26T09:45:42;98975.41;;;10.27;93.77
70314;BME280;71040;47.526;18.986;2024-02-26T09:50:43;98975.41;;;10.27;93.65
70314;BME280;71040;47.526;18.986;2024-02-26T09:55:44;98983.09;;;10.30;93.89
70314;BME280;71040;47.526;18.986;2024-02-26T10:00:50;98978.56;;;10.34;94.43
70314;BME280;71040;47.526;18.986;2024-02-26T10:05:52;98991.44;;;10.37;96.01
70314;BME280;71040;47.526;18.986;2024-02-26T10:10:55;98983.53;;;10.38;96.53
70314;BME280;71040;47.526;18.986;2024-02-26T10:16:00;98979.03;;;10.40;96.67
70314;BME280;71040;47.526;18.986;2024-02-26T10:21:04;98978.19;;;10.40;97.95
70314;BME280;71040;47.526;18.986;2024-02-26T10:26:04;98972.03;;;10.41;98.01
70314;BME280;71040;47.526;18.986;2024-02-26T10:31:09;98966.50;;;10.47;97.92
70314;BME280;71040;47.526;18.986;2024-02-26T10:36:09;98959.22;;;10.52;98.41
70314;BME280;71040;47.526;18.986;2024-02-26T10:41:22;98964.88;;;10.60;100.00
70314;BME280;71040;47.526;18.986;2024-02-26T10:46:22;98958.59;;;10.63;99.21
70314;BME280;71040;47.526;18.986;2024-02-26T10:51:27;98939.13;;;10.68;99.47
70314;BME280;71040;47.526;18.986;2024-02-26T10:56:34;98938.66;;;10.76;99.26
70314;BME280;71040;47.526;18.986;2024-02-26T11:01:35;98938.56;;;10.77;99.51
70314;BME280;71040;47.526;18.986;2024-02-26T11:06:54;98938.66;;;10.76;100.00
70314;BME280;71040;47.526;18.986;2024-02-26T11:12:05;98936.97;;;10.75;99.69
70314;BME280;71040;47.526;18.986;2024-02-26T11:17:13;98936.91;;;10.76;100.00
70314;BME280;71040;47.526;18.986;2024-02-26T11:22:19;98943.91;;;10.76;99.15
70314;BME280;71040;47.526;18.986;2024-02-26T11:27:27;98943.06;;;10.75;99.01
70314;BME280;71040;47.526;18.986;2024-02-26T11:32:32;98940.34;;;10.77;98.94
70314;BME280;71040;47.526;18.986;2024-02-26T11:37:35;98941.88;;;10.81;98.86
70314;BME280;71040;47.526;18.986;2024-02-26T11:42:44;98933.84;;;10.84;98.83
70314;BME280;71040;47.526;18.986;2024-02-26T11:47:57;98942.34;;;10.87;98.04
70314;BME280;71040;47.526;18.986;2024-02-26T11:58:25;98943.47;;;10.98;97.95
70314;BME280;71040;47.526;18.986;2024-02-26T12:03:28;98944.31;;;10.98;97.83
70314;BME280;71040;47.526;18.986;2024-02-26T12:08:34;98945.06;;;11.00;97.70
70314;BME280;71040;47.526;18.986;2024-02-26T12:13:35;98940.69;;;11.01;97.78
70314;BME280;71040;47.526;18.986;2024-02-26T12:18:44;98938.81;;;11.03;98.12
70314;BME280;71040;47.526;18.986;2024-02-26T12:23:45;98937.81;;;11.05;98.89
70314;BME280;71040;47.526;18.986;2024-02-26T12:28:46;98928.09;;;11.07;98.74
70314;BME280;71040;47.526;18.986;2024-02-26T12:33:49;98925.56;;;11.06;98.63
70314;BME280;71040;47.526;18.986;2024-02-26T12:38:51;98930.59;;;11.09;98.83
70314;BME280;71040;47.526;18.986;2024-02-26T12:43:53;98927.91;;;11.10;98.23
70314;BME280;71040;47.526;18.986;2024-02-26T12:48:55;98928.56;;;11.14;98.53
70314;BME280;71040;47.526;18.986;2024-02-26T12:53:58;98924.09;;;11.16;98.48
70314;BME280;71040;47.526;18.986;2024-02-26T12:58:59;98934.25;;;11.20;98.75
70314;BME280;71040;47.526;18.986;2024-02-26T13:04:02;98938.56;;;11.21;98.48
70314;BME280;71040;47.526;18.986;2024-02-26T13:09:07;98932.69;;;11.18;97.88
70314;BME280;71040;47.526;18.986;2024-02-26T13:14:19;98936.78;;;11.22;97.98
70314;BME280;71040;47.526;18.986;2024-02-26T13:19:24;98928.09;;;11.21;97.52
70314;BME280;71040;47.526;18.986;2024-02-26T13:24:25;98932.31;;;11.24;97.90
70314;BME280;71040;47.526;18.986;2024-02-26T13:29:28;98920.75;;;11.28;97.58
70314;BME280;71040;47.526;18.986;2024-02-26T13:34:28;98923.16;;;11.31;97.15
70314;BME280;71040;47.526;18.986;2024-02-26T13:39:33;98929.13;;;11.33;97.53
70314;BME280;71040;47.526;18.986;2024-02-26T13:44:36;98923.91;;;11.33;96.80
70314;BME280;71040;47.526;18.986;2024-02-26T13:49:41;98923.91;;;11.33;96.55
70314;BME280;71040;47.526;18.986;2024-02-26T13:54:46;98929.03;;;11.35;96.16
70314;BME280;71040;47.526;18.986;2024-02-26T13:59:47;98921.00;;;11.38;95.93
70314;BME280;71040;47.526;18.986;2024-02-26T14:04:47;98918.41;;;11.38;96.16
70314;BME280;71040;47.526;18.986;2024-02-26T14:09:50;98905.22;;;11.39;96.60
70314;BME280;71040;47.526;18.986;2024-02-26T14:14:56;98900.84;;;11.40;96.27
70314;BME280;71040;47.526;18.986;2024-02-26T14:19:57;98898.97;;;11.42;96.59
70314;BME280;71040;47.526;18.986;2024-02-26T14:24:57;98899.69;;;11.44;96.44
70314;BME280;71040;47.526;18.986;2024-02-26T14:30:00;98896.34;;;11.42;96.04
70314;BME280;71040;47.526;18.986;2024-02-26T14:35:01;98907.34;;;11.47;95.96
70314;BME280;71040;47.526;18.986;2024-02-26T14:40:06;98903.81;;;11.48;95.41
70314;BME280;71040;47.526;18.986;2024-02-26T14:45:10;98915.31;;;11.45;95.67
70314;BME280;71040;47.526;18.986;2024-02-26T14:50:14;98912.69;;;11.45;95.45
70314;BME280;71040;47.526;18.986;2024-02-26T14:55:17;98918.66;;;11.47;94.95
70314;BME280;71040;47.526;18.986;2024-02-26T15:00:20;98914.38;;;11.46;94.90
70314;BME280;71040;47.526;18.986;2024-02-26T15:05:20;98916.06;;;11.47;94.78
70314;BME280;71040;47.526;18.986;2024-02-26T15:10:21;98924.66;;;11.49;95.19
70314;BME280;71040;47.526;18.986;2024-02-26T15:15:24;98926.34;;;11.50;94.49
70314;BME280;71040;47.526;18.986;2024-02-26T15:20:24;98926.34;;;11.50;95.09
70314;BME280;71040;47.526;18.986;2024-02-26T15:25:27;98935.88;;;11.51;95.07
70314;BME280;71040;47.526;18.986;2024-02-26T15:30:27;98946.13;;;11.54;95.03
70314;BME280;71040;47.526;18.986;2024-02-26T15:35:30;98930.66;;;11.51;95.39
70314;BME280;71040;47.526;18.986;2024-02-26T15:40:33;98938.41;;;11.53;95.15
70314;BME280;71040;47.526;18.986;2024-02-26T15:45:39;98950.44;;;11.55;95.38
70314;BME280;71040;47.526;18.986;2024-02-26T15:50:41;98944.56;;;11.52;95.63
70314;BME280;71040;47.526;18.986;2024-02-26T15:55:44;98951.59;;;11.51;95.68
70314;BME280;71040;47.526;18.986;2024-02-26T16:00:45;98941.28;;;11.48;95.98
70314;BME280;71040;47.526;18.986;2024-02-26T16:05:48;98951.75;;;11.48;96.00
70314;BME280;71040;47.526;18.986;2024-02-26T16:10:49;98949.31;;;11.45;95.90
70314;BME280;71040;47.526;18.986;2024-02-26T16:16:04;98967.66;;;11.45;96.05
70314;BME280;71040;47.526;18.986;2024-02-26T16:21:08;98961.03;;;11.40;96.15
70314;BME280;71040;47.526;18.986;2024-02-26T16:26:11;98971.50;;;11.40;95.99
70314;BME280;71040;47.526;18.986;2024-02-26T16:31:11;98985.41;;;11.40;96.33
70314;BME280;71040;47.526;18.986;2024-02-26T16:36:14;98986.25;;;11.41;96.33
70314;BME280;71040;47.526;18.986;2024-02-26T16:41:14;99001.13;;;11.40;95.93
70314;BME280;71040;47.526;18.986;2024-02-26T16:46:17;99009.81;;;11.41;95.89
70314;BME280;71040;47.526;18.986;2024-02-26T16:51:19;99018.38;;;11.43;95.67
70314;BME280;71040;47.526;18.986;2024-02-26T16:56:19;99020.16;;;11.42;95.72
70314;BME280;71040;47.526;18.986;2024-02-26T17:01:22;99019.34;;;11.42;95.51
70314;BME280;71040;47.526;18.986;2024-02-26T17:06:22;99022.78;;;11.42;95.51
70314;BME280;71040;47.526;18.986;2024-02-26T17:11:23;99034.09;;;11.43;95.14
70314;BME280;71040;47.526;18.986;2024-02-26T17:16:26;99032.44;;;11.42;95.32
70314;BME280;71040;47.526;18.986;2024-02-26T17:21:29;99037.66;;;11.42;95.18
70314;BME280;71040;47.526;18.986;2024-02-26T17:26:30;99048.94;;;11.42;95.03
70314;BME280;71040;47.526;18.986;2024-02-26T17:31:30;99052.53;;;11.41;94.98
70314;BME280;71040;47.526;18.986;2024-02-26T17:36:30;99053.38;;;11.42;94.82
70314;BME280;71040;47.526;18.986;2024-02-26T17:41:31;99062.16;;;11.41;94.72
70314;BME280;71040;47.526;18.986;2024-02-26T17:46:40;99062.16;;;11.41;94.65
70314;BME280;71040;47.526;18.986;2024-02-26T17:51:40;99063.09;;;11.40;94.87
70314;BME280;71040;47.526;18.986;2024-02-26T17:56:43;99068.41;;;11.38;94.84
70314;BME280;71040;47.526;18.986;2024-02-26T18:01:46;99084.03;;;11.40;94.63
70314;BME280;71040;47.526;18.986;2024-02-26T18:06:47;99077.94;;;11.39;94.51
70314;BME280;71040;47.526;18.986;2024-02-26T18:11:47;99077.94;;;11.39;94.53
70314;BME280;71040;47.526;18.986;2024-02-26T18:16:48;99080.66;;;11.38;94.67
70314;BME280;71040;47.526;18.986;2024-02-26T18:21:48;99085.03;;;11.37;94.38
70314;BME280;71040;47.526;18.986;2024-02-26T18:26:51;99089.34;;;11.38;94.31
70314;BME280;71040;47.526;18.986;2024-02-26T18:31:56;99088.50;;;11.38;94.42
70314;BME280;71040;47.526;18.986;2024-02-26T18:36:59;99095.50;;;11.37;94.38
70314;BME280;71040;47.526;18.986;2024-02-26T18:42:02;99099.06;;;11.36;94.21
70314;BME280;71040;47.526;18.986;2024-02-26T18:47:07;99097.28;;;11.37;94.22
70314;BME280;71040;47.526;18.986;2024-02-26T18:52:10;99097.38;;;11.35;94.10
70314;BME280;71040;47.526;18.986;2024-02-26T18:57:10;99098.28;;;11.34;94.21
70314;BME280;71040;47.526;18.986;2024-02-26T19:02:13;99088.84;;;11.32;94.25
70314;BME280;71040;47.526;18.986;2024-02-26T19:07:16;99098.28;;;11.34;94.09
70314;BME280;71040;47.526;18.986;2024-02-26T19:12:17;99101.00;;;11.33;94.38
70314;BME280;71040;47.526;18.986;2024-02-26T19:17:22;99104.53;;;11.32;94.16
70314;BME280;71040;47.526;18.986;2024-02-26T19:22:23;99110.63;;;11.32;93.93
70314;BME280;71040;47.526;18.986;2024-02-26T19:27:28;99115.75;;;11.34;94.09
70314;BME280;71040;47.526;18.986;2024-02-26T19:32:29;99109.03;;;11.30;94.35
70314;BME280;71040;47.526;18.986;2024-02-26T19:37:29;99136.78;;;11.32;94.06
70314;BME280;71040;47.526;18.986;2024-02-26T19:42:34;99149.88;;;11.32;94.09
70314;BME280;71040;47.526;18.986;2024-02-26T19:47:35;99143.78;;;11.32;93.85
70314;BME280;71040;47.526;18.986;2024-02-26T19:52:41;99143.91;;;11.30;93.85
70314;BME280;71040;47.526;18.986;2024-02-26T19:57:44;99143.06;;;11.30;93.95
70314;BME280;71040;47.526;18.986;2024-02-26T20:02:47;99148.28;;;11.30;93.90
70314;BME280;71040;47.526;18.986;2024-02-26T20:07:52;99157.91;;;11.29;93.92
70314;BME280;71040;47.526;18.986;2024-02-26T20:13:00;99163.16;;;11.29;93.66
70314;BME280;71040;47.526;18.986;2024-02-26T20:18:03;99158.84;;;11.28;93.67
70314;BME280;71040;47.526;18.986;2024-02-26T20:23:03;99157.16;;;11.27;93.81
70314;BME280;71040;47.526;18.986;2024-02-26T20:28:04;99162.38;;;11.27;93.78
70314;BME280;71040;47.526;18.986;2024-02-26T20:33:05;99173.78;;;11.26;93.54
70314;BME280;71040;47.526;18.986;2024-02-26T20:38:12;99178.16;;;11.25;93.58
70314;BME280;71040;47.526;18.986;2024-02-26T20:43:13;99184.31;;;11.24;93.60
70314;BME280;71040;47.526;18.986;2024-02-26T20:48:17;99193.03;;;11.25;93.61
70314;BME280;71040;47.526;18.986;2024-02-26T20:53:19;99203.56;;;11.23;93.45
70314;BME280;71040;47.526;18.986;2024-02-26T20:58:19;99202.72;;;11.23;93.60
70314;BME280;71040;47.526;18.986;2024-02-26T21:03:22;99212.34;;;11.22;93.69
70314;BME280;71040;47.526;18.986;2024-02-26T21:08:32;99212.34;;;11.22;93.41
70314;BME280;71040;47.526;18.986;2024-02-26T21:13:34;99217.66;;;11.21;93.28
70314;BME280;71040;47.526;18.986;2024-02-26T21:18:34;99215.13;;;11.19;93.66
70314;BME280;71040;47.526;18.986;2024-02-26T21:23:41;99212.50;;;11.19;93.68
70314;BME280;71040;47.526;18.986;2024-02-26T21:28:41;99223.81;;;11.20;93.59
70314;BME280;71040;47.526;18.986;2024-02-26T21:33:44;99230.00;;;11.19;93.67
70314;BME280;71040;47.526;18.986;2024-02-26T21:38:44;99235.25;;;11.19;93.39
70314;BME280;71040;47.526;18.986;2024-02-26T21:43:45;99244.00;;;11.18;92.92
70314;BME280;71040;47.526;18.986;2024-02-26T21:48:50;99241.41;;;11.18;93.55
70314;BME280;71040;47.526;18.986;2024-02-26T21:53:53;99247.56;;;11.17;93.79
70314;BME280;71040;47.526;18.986;2024-02-26T21:58:58;99251.09;;;11.16;93.51
70314;BME280;71040;47.526;18.986;2024-02-26T22:03:59;99253.72;;;11.16;93.52
70314;BME280;71040;47.526;18.986;2024-02-26T22:08:59;99250.25;;;11.15;93.55
70314;BME280;71040;47.526;18.986;2024-02-26T22:14:03;99243.50;;;11.11;93.46
70314;BME280;71040;47.526;18.986;2024-02-26T22:19:03;99242.66;;;11.11;93.71
70314;BME280;71040;47.526;18.986;2024-02-26T22:24:05;99246.88;;;11.13;93.74
70314;BME280;71040;47.526;18.986;2024-02-26T22:29:06;99258.25;;;11.12;93.61
70314;BME280;71040;47.526;18.986;2024-02-26T22:34:09;99255.72;;;11.11;93.76
70314;BME280;71040;47.526;18.986;2024-02-26T22:39:12;99253.94;;;11.11;93.66
70314;BME280;71040;47.526;18.986;2024-02-26T22:44:15;99260.09;;;11.10;93.47
70314;BME280;71040;47.526;18.986;2024-02-26T22:49:18;99253.28;;;11.08;93.55
70314;BME280;71040;47.526;18.986;2024-02-26T22:54:19;99256.72;;;11.08;93.34
70314;BME280;71040;47.526;18.986;2024-02-26T22:59:21;99259.25;;;11.10;93.56
70314;BME280;71040;47.526;18.986;2024-02-26T23:04:22;99264.56;;;11.08;93.62
70314;BME280;71040;47.526;18.986;2024-02-26T23:09:23;99261.13;;;11.08;93.19
70314;BME280;71040;47.526;18.986;2024-02-26T23:14:26;99297.84;;;11.06;93.41
70314;BME280;71040;47.526;18.986;2024-02-26T23:19:29;99294.38;;;11.06;93.51
70314;BME280;71040;47.526;18.986;2024-02-26T23:24:31;99300.53;;;11.05;93.41
70314;BME280;71040;47.526;18.986;2024-02-26T23:29:36;99302.16;;;11.07;93.50
70314;BME280;71040;47.526;18.986;2024-02-26T23:34:39;99285.69;;;11.05;93.65
70314;BME280;71040;47.526;18.986;2024-02-26T23:39:42;99280.47;;;11.05;93.45
70314;BME280;71040;47.526;18.986;2024-02-26T23:44:46;99275.31;;;11.04;93.51
70314;BME280;71040;47.526;18.986;2024-02-26T23:49:46;99267.47;;;11.04;93.71
70314;BME280;71040;47.526;18.986;2024-02-26T23:54:47;99277.06;;;11.03;93.32
70314;BME280;71040;47.526;18.986;2024-02-26T23:59:49;99273.63;;;11.03;93.73
